sensor_id;sensor_type;location;lat;lon;timestamp;P1;durP1;ratioP1;P2;durP2;ratioP2
335;SDS011;156;48.738;9.228;2023-04-24T00:00:13;1.80;;;1.70;;
335;SDS011;156;48.738;9.228;2023-04-24T00:02:44;2.20;;;2.00;;
335;SDS011;156;48.738;9.228;2023-04-24T00:05:13;1.92;;;1.83;;
335;SDS011;156;48.738;9.228;2023-04-24T00:07:42;1.90;;;1.80;;
335;SDS011;156;48.738;9.228;2023-04-24T00:10:10;1.80;;;1.70;;
335;SDS011;156;48.738;9.228;2023-04-24T00:12:38;2.00;;;1.90;;
335;SDS011;156;48.738;9.228;2023-04-24T00:15:08;2.00;;;1.90;;
335;SDS011;156;48.738;9.228;2023-04-24T00:17:36;4.75;;;2.45;;
335;SDS011;156;48.738;9.228;2023-04-24T00:20:06;2.50;;;2.30;;
335;SDS011;156;48.738;9.228;2023-04-24T00:22:35;2.30;;;2.10;;
335;SDS011;156;48.738;9.228;2023-04-24T00:25:05;2.00;;;1.90;;
335;SDS011;156;48.738;9.228;2023-04-24T00:27:34;2.40;;;2.20;;
335;SDS011;156;48.738;9.228;2023-04-24T00:30:02;2.00;;;1.90;;
335;SDS011;156;48.738;9.228;2023-04-24T00:32:31;1.90;;;1.80;;
335;SDS011;156;48.738;9.228;2023-04-24T00:34:58;9.40;;;2.40;;
335;SDS011;156;48.738;9.228;2023-04-24T00:37:27;2.35;;;2.15;;
335;SDS011;156;48.738;9.228;2023-04-24T00:39:54;1.40;;;1.30;;
335;SDS011;156;48.738;9.228;2023-04-24T00:42:21;1.80;;;1.70;;
335;SDS011;156;48.738;9.228;2023-04-24T00:44:49;1.30;;;1.20;;
335;SDS011;156;48.738;9.228;2023-04-24T00:47:16;1.40;;;1.30;;
335;SDS011;156;48.738;9.228;2023-04-24T00:49:46;1.10;;;1.00;;
335;SDS011;156;48.738;9.228;2023-04-24T00:52:14;1.25;;;1.15;;
335;SDS011;156;48.738;9.228;2023-04-24T00:54:44;1.50;;;1.40;;
335;SDS011;156;48.738;9.228;2023-04-24T00:57:11;1.00;;;0.90;;
335;SDS011;156;48.738;9.228;2023-04-24T00:59:40;0.80;;;0.70;;
335;SDS011;156;48.738;9.228;2023-04-24T01:02:09;0.65;;;0.60;;
335;SDS011;156;48.738;9.228;2023-04-24T01:04:38;0.60;;;0.60;;
335;SDS011;156;48.738;9.228;2023-04-24T01:07:05;0.70;;;0.68;;
335;SDS011;156;48.738;9.228;2023-04-24T01:09:35;1.23;;;0.80;;
335;SDS011;156;48.738;9.228;2023-04-24T01:12:05;0.65;;;0.60;;
335;SDS011;156;48.738;9.228;2023-04-24T01:14:33;0.73;;;0.60;;
335;SDS011;156;48.738;9.228;2023-04-24T01:17:00;0.50;;;0.40;;
335;SDS011;156;48.738;9.228;2023-04-24T01:19:27;1.23;;;1.13;;
335;SDS011;156;48.738;9.228;2023-04-24T01:21:54;0.70;;;0.60;;
335;SDS011;156;48.738;9.228;2023-04-24T01:24:26;0.93;;;0.80;;
335;SDS011;156;48.738;9.228;2023-04-24T01:26:53;0.55;;;0.50;;
335;SDS011;156;48.738;9.228;2023-04-24T01:29:20;0.98;;;0.60;;
335;SDS011;156;48.738;9.228;2023-04-24T01:31:47;0.50;;;0.47;;
335;SDS011;156;48.738;9.228;2023-04-24T01:34:14;1.40;;;0.60;;
335;SDS011;156;48.738;9.228;2023-04-24T01:36:42;0.77;;;0.70;;
335;SDS011;156;48.738;9.228;2023-04-24T01:39:11;0.50;;;0.50;;
335;SDS011;156;48.738;9.228;2023-04-24T01:41:40;1.02;;;0.70;;
335;SDS011;156;48.738;9.228;2023-04-24T01:44:07;0.70;;;0.68;;
335;SDS011;156;48.738;9.228;2023-04-24T01:46:34;1.30;;;0.70;;
335;SDS011;156;48.738;9.228;2023-04-24T01:49:04;0.60;;;0.50;;
335;SDS011;156;48.738;9.228;2023-04-24T01:51:31;0.98;;;0.70;;
335;SDS011;156;48.738;9.228;2023-04-24T01:53:58;0.50;;;0.50;;
335;SDS011;156;48.738;9.228;2023-04-24T01:56:25;0.60;;;0.60;;
335;SDS011;156;48.738;9.228;2023-04-24T01:58:56;1.60;;;0.63;;
335;SDS011;156;48.738;9.228;2023-04-24T02:01:24;0.98;;;0.60;;
335;SDS011;156;48.738;9.228;2023-04-24T02:03:52;0.88;;;0.57;;
335;SDS011;156;48.738;9.228;2023-04-24T02:06:19;0.65;;;0.63;;
335;SDS011;156;48.738;9.228;2023-04-24T02:08:47;0.50;;;0.50;;
335;SDS011;156;48.738;9.228;2023-04-24T02:11:14;0.60;;;0.50;;
335;SDS011;156;48.738;9.228;2023-04-24T02:13:41;0.50;;;0.50;;
335;SDS011;156;48.738;9.228;2023-04-24T02:16:09;1.23;;;0.75;;
335;SDS011;156;48.738;9.228;2023-04-24T02:18:36;0.52;;;0.52;;
335;SDS011;156;48.738;9.228;2023-04-24T02:21:03;0.55;;;0.52;;
335;SDS011;156;48.738;9.228;2023-04-24T02:23:30;0.60;;;0.60;;
335;SDS011;156;48.738;9.228;2023-04-24T02:25:57;1.30;;;1.20;;
335;SDS011;156;48.738;9.228;2023-04-24T02:28:24;0.90;;;0.80;;
335;SDS011;156;48.738;9.228;2023-04-24T02:30:51;0.70;;;0.60;;
335;SDS011;156;48.738;9.228;2023-04-24T02:33:19;0.73;;;0.63;;
335;SDS011;156;48.738;9.228;2023-04-24T02:35:46;0.80;;;0.80;;
335;SDS011;156;48.738;9.228;2023-04-24T02:38:13;4.40;;;0.75;;
335;SDS011;156;48.738;9.228;2023-04-24T02:40:40;1.73;;;1.20;;
335;SDS011;156;48.738;9.228;2023-04-24T02:43:07;0.90;;;0.80;;
335;SDS011;156;48.738;9.228;2023-04-24T02:45:37;0.90;;;0.80;;
335;SDS011;156;48.738;9.228;2023-04-24T02:48:04;1.02;;;0.93;;
335;SDS011;156;48.738;9.228;2023-04-24T02:53:00;0.75;;;0.65;;
335;SDS011;156;48.738;9.228;2023-04-24T02:55:29;1.48;;;1.38;;
335;SDS011;156;48.738;9.228;2023-04-24T02:57:56;1.10;;;1.00;;
335;SDS011;156;48.738;9.228;2023-04-24T03:00:23;0.80;;;0.70;;
335;SDS011;156;48.738;9.228;2023-04-24T03:02:50;1.30;;;0.90;;
335;SDS011;156;48.738;9.228;2023-04-24T03:05:18;1.60;;;1.50;;
335;SDS011;156;48.738;9.228;2023-04-24T03:07:46;1.00;;;0.90;;
335;SDS011;156;48.738;9.228;2023-04-24T03:10:13;1.10;;;1.00;;
335;SDS011;156;48.738;9.228;2023-04-24T03:12:40;1.00;;;0.90;;
335;SDS011;156;48.738;9.228;2023-04-24T03:15:08;1.30;;;1.20;;
335;SDS011;156;48.738;9.228;2023-04-24T03:17:35;1.50;;;1.40;;
335;SDS011;156;48.738;9.228;2023-04-24T03:20:02;1.73;;;1.63;;
335;SDS011;156;48.738;9.228;2023-04-24T03:22:31;1.60;;;1.50;;
335;SDS011;156;48.738;9.228;2023-04-24T03:25:00;1.83;;;1.73;;
335;SDS011;156;48.738;9.228;2023-04-24T03:27:27;1.40;;;1.30;;
335;SDS011;156;48.738;9.228;2023-04-24T03:29:53;1.45;;;1.35;;
335;SDS011;156;48.738;9.228;2023-04-24T03:32:22;2.70;;;1.40;;
335;SDS011;156;48.738;9.228;2023-04-24T03:34:49;1.30;;;1.20;;
335;SDS011;156;48.738;9.228;2023-04-24T03:37:16;1.50;;;1.40;;
335;SDS011;156;48.738;9.228;2023-04-24T03:39:43;1.60;;;1.50;;
335;SDS011;156;48.738;9.228;2023-04-24T03:42:11;1.80;;;1.45;;
335;SDS011;156;48.738;9.228;2023-04-24T03:44:38;1.65;;;1.55;;
335;SDS011;156;48.738;9.228;2023-04-24T03:47:05;1.88;;;1.77;;
335;SDS011;156;48.738;9.228;2023-04-24T03:49:32;1.40;;;1.30;;
335;SDS011;156;48.738;9.228;2023-04-24T03:51:59;1.55;;;1.45;;
335;SDS011;156;48.738;9.228;2023-04-24T03:54:26;2.45;;;1.95;;
335;SDS011;156;48.738;9.228;2023-04-24T03:56:53;1.40;;;1.30;;
335;SDS011;156;48.738;9.228;2023-04-24T03:59:21;1.50;;;1.40;;
335;SDS011;156;48.738;9.228;2023-04-24T04:01:48;11.10;;;2.80;;
335;SDS011;156;48.738;9.228;2023-04-24T04:04:15;1.60;;;1.50;;
335;SDS011;156;48.738;9.228;2023-04-24T04:06:42;1.50;;;1.40;;
335;SDS011;156;48.738;9.228;2023-04-24T04:09:11;4.82;;;2.75;;
335;SDS011;156;48.738;9.228;2023-04-24T04:11:38;1.40;;;1.30;;
335;SDS011;156;48.738;9.228;2023-04-24T04:14:05;1.50;;;1.40;;
335;SDS011;156;48.738;9.228;2023-04-24T04:16:33;1.65;;;1.55;;
335;SDS011;156;48.738;9.228;2023-04-24T04:19:01;1.42;;;1.33;;
335;SDS011;156;48.738;9.228;2023-04-24T04:21:28;1.60;;;1.50;;
335;SDS011;156;48.738;9.228;2023-04-24T04:23:55;1.60;;;1.50;;
335;SDS011;156;48.738;9.228;2023-04-24T04:26:22;1.35;;;1.25;;
335;SDS011;156;48.738;9.228;2023-04-24T04:28:52;1.33;;;1.23;;
335;SDS011;156;48.738;9.228;2023-04-24T04:31:19;1.33;;;1.23;;
335;SDS011;156;48.738;9.228;2023-04-24T04:33:48;1.67;;;1.58;;
335;SDS011;156;48.738;9.228;2023-04-24T04:36:15;5.95;;;5.65;;
335;SDS011;156;48.738;9.228;2023-04-24T04:38:42;7.35;;;6.95;;
335;SDS011;156;48.738;9.228;2023-04-24T04:41:09;5.90;;;5.60;;
335;SDS011;156;48.738;9.228;2023-04-24T04:43:36;6.10;;;5.80;;
335;SDS011;156;48.738;9.228;2023-04-24T04:46:05;7.15;;;6.75;;
335;SDS011;156;48.738;9.228;2023-04-24T04:48:33;7.13;;;6.72;;
335;SDS011;156;48.738;9.228;2023-04-24T04:51:01;7.22;;;6.82;;
335;SDS011;156;48.738;9.228;2023-04-24T04:53:28;6.57;;;6.18;;
335;SDS011;156;48.738;9.228;2023-04-24T04:55:55;6.40;;;6.00;;
335;SDS011;156;48.738;9.228;2023-04-24T04:58:22;6.38;;;6.00;;
335;SDS011;156;48.738;9.228;2023-04-24T05:00:49;6.70;;;6.30;;
335;SDS011;156;48.738;9.228;2023-04-24T05:03:17;4.40;;;4.10;;
335;SDS011;156;48.738;9.228;2023-04-24T05:05:44;6.03;;;5.72;;
335;SDS011;156;48.738;9.228;2023-04-24T05:08:12;5.20;;;4.90;;
335;SDS011;156;48.738;9.228;2023-04-24T05:10:39;5.07;;;4.78;;
335;SDS011;156;48.738;9.228;2023-04-24T05:13:06;4.20;;;3.95;;
335;SDS011;156;48.738;9.228;2023-04-24T05:15:33;4.28;;;4.00;;
335;SDS011;156;48.738;9.228;2023-04-24T05:18:00;3.67;;;3.47;;
335;SDS011;156;48.738;9.228;2023-04-24T05:20:27;3.75;;;3.55;;
335;SDS011;156;48.738;9.228;2023-04-24T05:22:54;3.33;;;3.13;;
335;SDS011;156;48.738;9.228;2023-04-24T05:25:22;3.55;;;3.35;;
335;SDS011;156;48.738;9.228;2023-04-24T05:27:49;3.92;;;3.72;;
335;SDS011;156;48.738;9.228;2023-04-24T05:30:16;2.72;;;2.53;;
335;SDS011;156;48.738;9.228;2023-04-24T05:32:43;3.00;;;2.80;;
335;SDS011;156;48.738;9.228;2023-04-24T05:35:10;4.90;;;3.90;;
335;SDS011;156;48.738;9.228;2023-04-24T05:37:37;3.80;;;3.60;;
335;SDS011;156;48.738;9.228;2023-04-24T05:40:04;3.28;;;3.08;;
335;SDS011;156;48.738;9.228;2023-04-24T05:42:33;3.50;;;3.30;;
335;SDS011;156;48.738;9.228;2023-04-24T05:45:00;3.20;;;3.00;;
335;SDS011;156;48.738;9.228;2023-04-24T05:47:27;3.47;;;3.28;;
335;SDS011;156;48.738;9.228;2023-04-24T05:49:53;3.10;;;2.90;;
335;SDS011;156;48.738;9.228;2023-04-24T05:52:20;3.50;;;3.30;;
335;SDS011;156;48.738;9.228;2023-04-24T05:54:47;3.40;;;3.20;;
335;SDS011;156;48.738;9.228;2023-04-24T05:57:14;3.10;;;2.90;;
335;SDS011;156;48.738;9.228;2023-04-24T05:59:42;3.65;;;3.45;;
335;SDS011;156;48.738;9.228;2023-04-24T06:02:09;4.88;;;4.57;;
335;SDS011;156;48.738;9.228;2023-04-24T06:04:36;3.20;;;3.00;;
335;SDS011;156;48.738;9.228;2023-04-24T06:07:03;3.30;;;3.10;;
335;SDS011;156;48.738;9.228;2023-04-24T06:09:30;3.22;;;3.03;;
335;SDS011;156;48.738;9.228;2023-04-24T06:11:57;4.47;;;4.18;;
335;SDS011;156;48.738;9.228;2023-04-24T06:14:25;3.80;;;3.60;;
335;SDS011;156;48.738;9.228;2023-04-24T06:16:53;3.50;;;3.30;;
335;SDS011;156;48.738;9.228;2023-04-24T06:19:20;4.30;;;4.00;;
335;SDS011;156;48.738;9.228;2023-04-24T06:21:47;3.63;;;3.42;;
335;SDS011;156;48.738;9.228;2023-04-24T06:24:14;3.20;;;3.00;;
335;SDS011;156;48.738;9.228;2023-04-24T06:26:42;3.80;;;3.60;;
335;SDS011;156;48.738;9.228;2023-04-24T06:29:08;3.80;;;3.60;;
335;SDS011;156;48.738;9.228;2023-04-24T06:31:35;4.53;;;4.22;;
335;SDS011;156;48.738;9.228;2023-04-24T06:34:04;2.90;;;2.70;;
335;SDS011;156;48.738;9.228;2023-04-24T06:36:31;3.20;;;3.00;;
335;SDS011;156;48.738;9.228;2023-04-24T06:38:59;2.88;;;2.67;;
335;SDS011;156;48.738;9.228;2023-04-24T06:41:26;3.15;;;2.95;;
335;SDS011;156;48.738;9.228;2023-04-24T06:43:54;3.08;;;2.88;;
335;SDS011;156;48.738;9.228;2023-04-24T06:46:21;3.60;;;3.40;;
335;SDS011;156;48.738;9.228;2023-04-24T06:48:50;2.90;;;2.70;;
335;SDS011;156;48.738;9.228;2023-04-24T06:51:22;3.33;;;3.13;;
335;SDS011;156;48.738;9.228;2023-04-24T06:53:49;2.50;;;2.30;;
335;SDS011;156;48.738;9.228;2023-04-24T06:56:16;2.22;;;2.05;;
335;SDS011;156;48.738;9.228;2023-04-24T06:58:43;1.60;;;1.50;;
335;SDS011;156;48.738;9.228;2023-04-24T07:01:10;1.10;;;1.00;;
335;SDS011;156;48.738;9.228;2023-04-24T07:03:37;1.63;;;1.52;;
335;SDS011;156;48.738;9.228;2023-04-24T07:06:05;4.30;;;2.45;;
335;SDS011;156;48.738;9.228;2023-04-24T07:08:35;1.85;;;1.75;;
335;SDS011;156;48.738;9.228;2023-04-24T07:11:02;1.90;;;1.80;;
335;SDS011;156;48.738;9.228;2023-04-24T07:13:29;2.10;;;1.95;;
335;SDS011;156;48.738;9.228;2023-04-24T07:15:56;1.30;;;1.20;;
335;SDS011;156;48.738;9.228;2023-04-24T07:18:23;1.45;;;1.35;;
335;SDS011;156;48.738;9.228;2023-04-24T07:20:50;4.75;;;1.95;;
335;SDS011;156;48.738;9.228;2023-04-24T07:23:17;1.25;;;1.15;;
335;SDS011;156;48.738;9.228;2023-04-24T07:25:47;1.77;;;1.67;;
335;SDS011;156;48.738;9.228;2023-04-24T07:28:14;1.90;;;1.80;;
335;SDS011;156;48.738;9.228;2023-04-24T07:30:42;7.32;;;2.15;;
335;SDS011;156;48.738;9.228;2023-04-24T07:33:10;1.75;;;1.65;;
335;SDS011;156;48.738;9.228;2023-04-24T07:35:38;1.40;;;1.30;;
335;SDS011;156;48.738;9.228;2023-04-24T07:38:05;1.00;;;0.90;;
335;SDS011;156;48.738;9.228;2023-04-24T07:40:32;1.00;;;0.90;;
335;SDS011;156;48.738;9.228;2023-04-24T07:43:00;2.38;;;1.45;;
335;SDS011;156;48.738;9.228;2023-04-24T07:45:27;1.42;;;1.33;;
335;SDS011;156;48.738;9.228;2023-04-24T07:47:54;1.40;;;0.90;;
335;SDS011;156;48.738;9.228;2023-04-24T07:50:21;1.38;;;1.27;;
335;SDS011;156;48.738;9.228;2023-04-24T07:52:48;0.90;;;0.82;;
335;SDS011;156;48.738;9.228;2023-04-24T07:55:15;1.15;;;1.10;;
335;SDS011;156;48.738;9.228;2023-04-24T07:57:43;1.10;;;1.10;;
335;SDS011;156;48.738;9.228;2023-04-24T08:00:12;1.20;;;1.05;;
335;SDS011;156;48.738;9.228;2023-04-24T08:02:39;1.48;;;1.23;;
335;SDS011;156;48.738;9.228;2023-04-24T08:05:06;2.03;;;1.45;;
335;SDS011;156;48.738;9.228;2023-04-24T08:07:34;1.60;;;1.10;;
335;SDS011;156;48.738;9.228;2023-04-24T08:10:01;1.80;;;0.60;;
335;SDS011;156;48.738;9.228;2023-04-24T08:12:28;1.25;;;1.10;;
335;SDS011;156;48.738;9.228;2023-04-24T08:14:55;1.00;;;0.82;;
335;SDS011;156;48.738;9.228;2023-04-24T08:17:24;1.40;;;0.90;;
335;SDS011;156;48.738;9.228;2023-04-24T08:19:51;0.82;;;0.73;;
335;SDS011;156;48.738;9.228;2023-04-24T08:22:24;1.02;;;0.93;;
335;SDS011;156;48.738;9.228;2023-04-24T08:24:51;1.42;;;1.33;;
335;SDS011;156;48.738;9.228;2023-04-24T08:27:18;2.67;;;1.08;;
335;SDS011;156;48.738;9.228;2023-04-24T08:29:45;0.70;;;0.60;;
335;SDS011;156;48.738;9.228;2023-04-24T08:32:12;3.10;;;1.33;;
335;SDS011;156;48.738;9.228;2023-04-24T08:34:41;1.13;;;1.08;;
335;SDS011;156;48.738;9.228;2023-04-24T08:37:08;1.85;;;1.33;;
335;SDS011;156;48.738;9.228;2023-04-24T08:39:35;2.28;;;1.00;;
335;SDS011;156;48.738;9.228;2023-04-24T08:42:02;1.20;;;0.95;;
335;SDS011;156;48.738;9.228;2023-04-24T08:44:33;0.88;;;0.60;;
335;SDS011;156;48.738;9.228;2023-04-24T08:47:00;0.90;;;0.50;;
335;SDS011;156;48.738;9.228;2023-04-24T08:49:28;1.58;;;0.95;;
335;SDS011;156;48.738;9.228;2023-04-24T08:51:57;0.95;;;0.55;;
335;SDS011;156;48.738;9.228;2023-04-24T08:54:24;2.47;;;1.45;;
335;SDS011;156;48.738;9.228;2023-04-24T08:56:51;5.68;;;1.75;;
335;SDS011;156;48.738;9.228;2023-04-24T08:59:20;0.65;;;0.60;;
335;SDS011;156;48.738;9.228;2023-04-24T09:01:48;2.90;;;2.30;;
335;SDS011;156;48.738;9.228;2023-04-24T09:04:17;0.60;;;0.57;;
335;SDS011;156;48.738;9.228;2023-04-24T09:06:47;0.60;;;0.50;;
335;SDS011;156;48.738;9.228;2023-04-24T09:09:16;1.08;;;0.90;;
335;SDS011;156;48.738;9.228;2023-04-24T09:11:44;1.58;;;0.68;;
335;SDS011;156;48.738;9.228;2023-04-24T09:14:11;2.03;;;1.00;;
335;SDS011;156;48.738;9.228;2023-04-24T09:16:38;0.77;;;0.75;;
335;SDS011;156;48.738;9.228;2023-04-24T09:19:05;1.42;;;1.00;;
335;SDS011;156;48.738;9.228;2023-04-24T09:21:32;1.10;;;1.05;;
335;SDS011;156;48.738;9.228;2023-04-24T09:24:00;1.80;;;0.95;;
335;SDS011;156;48.738;9.228;2023-04-24T09:26:34;2.80;;;0.93;;
335;SDS011;156;48.738;9.228;2023-04-24T09:29:02;1.33;;;1.25;;
335;SDS011;156;48.738;9.228;2023-04-24T09:31:30;2.05;;;1.20;;
335;SDS011;156;48.738;9.228;2023-04-24T09:33:57;3.55;;;1.25;;
335;SDS011;156;48.738;9.228;2023-04-24T09:36:26;0.80;;;0.75;;
335;SDS011;156;48.738;9.228;2023-04-24T09:38:57;1.17;;;1.15;;
335;SDS011;156;48.738;9.228;2023-04-24T09:41:24;1.83;;;1.20;;
335;SDS011;156;48.738;9.228;2023-04-24T09:43:54;2.35;;;1.23;;
335;SDS011;156;48.738;9.228;2023-04-24T09:46:30;0.60;;;0.30;;
335;SDS011;156;48.738;9.228;2023-04-24T09:48:58;1.42;;;1.17;;
335;SDS011;156;48.738;9.228;2023-04-24T09:51:35;1.40;;;0.60;;
335;SDS011;156;48.738;9.228;2023-04-24T09:54:03;2.10;;;1.10;;
335;SDS011;156;48.738;9.228;2023-04-24T09:56:32;1.60;;;0.52;;
335;SDS011;156;48.738;9.228;2023-04-24T09:59:10;0.60;;;0.40;;
335;SDS011;156;48.738;9.228;2023-04-24T10:01:37;1.35;;;0.90;;
335;SDS011;156;48.738;9.228;2023-04-24T10:04:14;1.17;;;1.00;;
335;SDS011;156;48.738;9.228;2023-04-24T10:06:43;1.92;;;1.00;;
335;SDS011;156;48.738;9.228;2023-04-24T10:09:10;1.33;;;0.93;;
335;SDS011;156;48.738;9.228;2023-04-24T10:11:39;1.20;;;0.88;;
335;SDS011;156;48.738;9.228;2023-04-24T10:14:10;0.57;;;0.50;;
335;SDS011;156;48.738;9.228;2023-04-24T10:16:39;3.00;;;0.43;;
335;SDS011;156;48.738;9.228;2023-04-24T10:19:06;0.90;;;0.80;;
335;SDS011;156;48.738;9.228;2023-04-24T10:21:34;0.93;;;0.80;;
335;SDS011;156;48.738;9.228;2023-04-24T10:24:02;1.00;;;0.70;;
335;SDS011;156;48.738;9.228;2023-04-24T10:26:32;1.67;;;0.68;;
335;SDS011;156;48.738;9.228;2023-04-24T10:29:00;1.90;;;0.90;;
335;SDS011;156;48.738;9.228;2023-04-24T10:31:31;0.80;;;0.70;;
335;SDS011;156;48.738;9.228;2023-04-24T10:33:59;0.80;;;0.55;;
335;SDS011;156;48.738;9.228;2023-04-24T10:36:27;4.22;;;1.08;;
335;SDS011;156;48.738;9.228;2023-04-24T10:38:57;1.58;;;1.00;;
335;SDS011;156;48.738;9.228;2023-04-24T10:41:27;0.73;;;0.50;;
335;SDS011;156;48.738;9.228;2023-04-24T10:46:44;0.80;;;0.68;;
335;SDS011;156;48.738;9.228;2023-04-24T10:49:12;0.70;;;0.57;;
335;SDS011;156;48.738;9.228;2023-04-24T10:51:46;1.08;;;0.35;;
335;SDS011;156;48.738;9.228;2023-04-24T10:54:23;0.68;;;0.45;;
335;SDS011;156;48.738;9.228;2023-04-24T10:56:51;2.03;;;0.85;;
335;SDS011;156;48.738;9.228;2023-04-24T10:59:28;0.60;;;0.45;;
335;SDS011;156;48.738;9.228;2023-04-24T11:02:03;1.20;;;0.70;;
335;SDS011;156;48.738;9.228;2023-04-24T11:04:34;1.08;;;0.82;;
335;SDS011;156;48.738;9.228;2023-04-24T11:07:02;0.60;;;0.30;;
335;SDS011;156;48.738;9.228;2023-04-24T11:09:30;0.90;;;0.50;;
335;SDS011;156;48.738;9.228;2023-04-24T11:12:04;0.73;;;0.50;;
335;SDS011;156;48.738;9.228;2023-04-24T11:17:30;0.60;;;0.30;;
335;SDS011;156;48.738;9.228;2023-04-24T11:20:01;4.68;;;1.00;;
335;SDS011;156;48.738;9.228;2023-04-24T11:22:32;0.60;;;0.38;;
335;SDS011;156;48.738;9.228;2023-04-24T11:25:01;0.50;;;0.30;;
335;SDS011;156;48.738;9.228;2023-04-24T11:27:29;1.45;;;0.90;;
335;SDS011;156;48.738;9.228;2023-04-24T11:30:01;0.50;;;0.40;;
335;SDS011;156;48.738;9.228;2023-04-24T11:32:33;1.13;;;0.80;;
335;SDS011;156;48.738;9.228;2023-04-24T11:35:02;1.73;;;0.70;;
335;SDS011;156;48.738;9.228;2023-04-24T11:37:33;0.82;;;0.63;;
335;SDS011;156;48.738;9.228;2023-04-24T11:40:03;0.73;;;0.50;;
335;SDS011;156;48.738;9.228;2023-04-24T11:42:33;1.52;;;1.00;;
335;SDS011;156;48.738;9.228;2023-04-24T11:45:00;0.93;;;0.68;;
335;SDS011;156;48.738;9.228;2023-04-24T11:47:29;1.13;;;0.75;;
335;SDS011;156;48.738;9.228;2023-04-24T11:49:58;2.08;;;0.77;;
335;SDS011;156;48.738;9.228;2023-04-24T11:52:28;0.90;;;0.85;;
335;SDS011;156;48.738;9.228;2023-04-24T11:54:55;1.92;;;1.10;;
335;SDS011;156;48.738;9.228;2023-04-24T11:57:23;2.45;;;1.40;;
335;SDS011;156;48.738;9.228;2023-04-24T11:59:53;1.38;;;1.25;;
335;SDS011;156;48.738;9.228;2023-04-24T12:02:21;1.27;;;1.08;;
335;SDS011;156;48.738;9.228;2023-04-24T12:04:50;0.60;;;0.40;;
335;SDS011;156;48.738;9.228;2023-04-24T12:07:20;1.48;;;1.38;;
335;SDS011;156;48.738;9.228;2023-04-24T12:09:48;0.80;;;0.70;;
335;SDS011;156;48.738;9.228;2023-04-24T12:12:16;1.52;;;1.13;;
335;SDS011;156;48.738;9.228;2023-04-24T12:14:44;0.70;;;0.50;;
335;SDS011;156;48.738;9.228;2023-04-24T12:17:15;0.60;;;0.50;;
335;SDS011;156;48.738;9.228;2023-04-24T12:19:46;1.35;;;1.25;;
335;SDS011;156;48.738;9.228;2023-04-24T12:22:14;0.60;;;0.50;;
335;SDS011;156;48.738;9.228;2023-04-24T12:25:00;0.80;;;0.50;;
335;SDS011;156;48.738;9.228;2023-04-24T12:27:29;3.08;;;1.20;;
335;SDS011;156;48.738;9.228;2023-04-24T12:29:58;0.80;;;0.80;;
335;SDS011;156;48.738;9.228;2023-04-24T12:32:26;1.00;;;0.80;;
335;SDS011;156;48.738;9.228;2023-04-24T12:34:53;1.70;;;1.60;;
335;SDS011;156;48.738;9.228;2023-04-24T12:37:23;0.80;;;0.57;;
335;SDS011;156;48.738;9.228;2023-04-24T12:40:01;1.08;;;1.02;;
335;SDS011;156;48.738;9.228;2023-04-24T12:42:30;2.45;;;0.95;;
335;SDS011;156;48.738;9.228;2023-04-24T12:44:57;0.73;;;0.45;;
335;SDS011;156;48.738;9.228;2023-04-24T12:47:25;0.90;;;0.52;;
335;SDS011;156;48.738;9.228;2023-04-24T12:49:53;3.00;;;1.35;;
335;SDS011;156;48.738;9.228;2023-04-24T12:52:20;0.60;;;0.30;;
335;SDS011;156;48.738;9.228;2023-04-24T12:54:50;1.70;;;0.80;;
335;SDS011;156;48.738;9.228;2023-04-24T12:57:18;0.50;;;0.40;;
335;SDS011;156;48.738;9.228;2023-04-24T12:59:45;0.65;;;0.50;;
335;SDS011;156;48.738;9.228;2023-04-24T13:02:12;0.77;;;0.70;;
335;SDS011;156;48.738;9.228;2023-04-24T13:04:42;0.80;;;0.77;;
335;SDS011;156;48.738;9.228;2023-04-24T13:07:09;1.40;;;1.30;;
335;SDS011;156;48.738;9.228;2023-04-24T13:09:37;0.60;;;0.40;;
335;SDS011;156;48.738;9.228;2023-04-24T13:12:06;0.75;;;0.60;;
335;SDS011;156;48.738;9.228;2023-04-24T13:14:33;1.08;;;0.90;;
335;SDS011;156;48.738;9.228;2023-04-24T13:17:00;0.40;;;0.20;;
335;SDS011;156;48.738;9.228;2023-04-24T13:19:28;1.25;;;1.05;;
335;SDS011;156;48.738;9.228;2023-04-24T13:21:55;1.63;;;0.68;;
335;SDS011;156;48.738;9.228;2023-04-24T13:24:24;0.60;;;0.50;;
335;SDS011;156;48.738;9.228;2023-04-24T13:26:51;1.23;;;0.85;;
335;SDS011;156;48.738;9.228;2023-04-24T13:29:19;0.55;;;0.40;;
335;SDS011;156;48.738;9.228;2023-04-24T13:31:47;1.00;;;0.65;;
335;SDS011;156;48.738;9.228;2023-04-24T13:34:16;1.23;;;1.13;;
335;SDS011;156;48.738;9.228;2023-04-24T13:36:43;7.88;;;0.80;;
335;SDS011;156;48.738;9.228;2023-04-24T13:39:10;0.70;;;0.63;;
335;SDS011;156;48.738;9.228;2023-04-24T13:41:37;0.90;;;0.65;;
335;SDS011;156;48.738;9.228;2023-04-24T13:44:04;0.70;;;0.47;;
335;SDS011;156;48.738;9.228;2023-04-24T13:46:33;1.88;;;1.77;;
335;SDS011;156;48.738;9.228;2023-04-24T13:49:01;0.75;;;0.45;;
335;SDS011;156;48.738;9.228;2023-04-24T13:51:29;0.80;;;0.50;;
335;SDS011;156;48.738;9.228;2023-04-24T13:53:56;0.70;;;0.43;;
335;SDS011;156;48.738;9.228;2023-04-24T13:56:23;1.10;;;0.95;;
335;SDS011;156;48.738;9.228;2023-04-24T13:58:50;1.10;;;0.93;;
335;SDS011;156;48.738;9.228;2023-04-24T14:01:17;2.15;;;1.80;;
335;SDS011;156;48.738;9.228;2023-04-24T14:03:45;1.33;;;0.88;;
335;SDS011;156;48.738;9.228;2023-04-24T14:06:12;1.90;;;1.45;;
335;SDS011;156;48.738;9.228;2023-04-24T14:08:39;1.52;;;1.20;;
335;SDS011;156;48.738;9.228;2023-04-24T14:11:06;1.45;;;0.90;;
335;SDS011;156;48.738;9.228;2023-04-24T14:13:33;1.58;;;0.75;;
335;SDS011;156;48.738;9.228;2023-04-24T14:16:02;1.05;;;1.02;;
335;SDS011;156;48.738;9.228;2023-04-24T14:18:30;0.90;;;0.85;;
335;SDS011;156;48.738;9.228;2023-04-24T14:20:58;2.75;;;1.40;;
335;SDS011;156;48.738;9.228;2023-04-24T14:23:26;3.35;;;1.80;;
335;SDS011;156;48.738;9.228;2023-04-24T14:25:53;1.63;;;1.15;;
335;SDS011;156;48.738;9.228;2023-04-24T14:28:20;2.30;;;1.17;;
335;SDS011;156;48.738;9.228;2023-04-24T14:30:47;1.95;;;0.90;;
335;SDS011;156;48.738;9.228;2023-04-24T14:33:14;1.70;;;0.80;;
335;SDS011;156;48.738;9.228;2023-04-24T14:35:41;1.08;;;0.82;;
335;SDS011;156;48.738;9.228;2023-04-24T14:38:10;1.92;;;1.88;;
335;SDS011;156;48.738;9.228;2023-04-24T14:40:37;1.20;;;1.00;;
335;SDS011;156;48.738;9.228;2023-04-24T14:43:04;0.68;;;0.50;;
335;SDS011;156;48.738;9.228;2023-04-24T14:45:32;1.73;;;0.40;;
335;SDS011;156;48.738;9.228;2023-04-24T14:47:59;1.80;;;0.98;;
335;SDS011;156;48.738;9.228;2023-04-24T14:50:28;0.50;;;0.30;;
335;SDS011;156;48.738;9.228;2023-04-24T14:52:55;3.85;;;1.50;;
335;SDS011;156;48.738;9.228;2023-04-24T14:55:24;1.20;;;0.40;;
335;SDS011;156;48.738;9.228;2023-04-24T14:57:52;2.35;;;1.15;;
335;SDS011;156;48.738;9.228;2023-04-24T15:00:19;2.25;;;0.82;;
335;SDS011;156;48.738;9.228;2023-04-24T15:02:48;1.08;;;0.85;;
335;SDS011;156;48.738;9.228;2023-04-24T15:05:15;1.30;;;1.08;;
335;SDS011;156;48.738;9.228;2023-04-24T15:07:44;1.60;;;0.80;;
335;SDS011;156;48.738;9.228;2023-04-24T15:10:11;1.80;;;0.80;;
335;SDS011;156;48.738;9.228;2023-04-24T15:12:39;2.45;;;1.05;;
335;SDS011;156;48.738;9.228;2023-04-24T15:15:07;0.93;;;0.82;;
335;SDS011;156;48.738;9.228;2023-04-24T15:17:35;0.68;;;0.43;;
335;SDS011;156;48.738;9.228;2023-04-24T15:20:02;0.60;;;0.40;;
335;SDS011;156;48.738;9.228;2023-04-24T15:22:31;2.30;;;1.48;;
335;SDS011;156;48.738;9.228;2023-04-24T15:24:58;1.73;;;0.90;;
335;SDS011;156;48.738;9.228;2023-04-24T15:27:26;0.70;;;0.45;;
335;SDS011;156;48.738;9.228;2023-04-24T15:29:54;1.15;;;0.70;;
335;SDS011;156;48.738;9.228;2023-04-24T15:32:22;0.77;;;0.50;;
335;SDS011;156;48.738;9.228;2023-04-24T15:34:49;1.77;;;0.93;;
335;SDS011;156;48.738;9.228;2023-04-24T15:37:16;0.50;;;0.40;;
335;SDS011;156;48.738;9.228;2023-04-24T15:39:45;1.30;;;1.20;;
335;SDS011;156;48.738;9.228;2023-04-24T15:42:12;1.27;;;1.17;;
335;SDS011;156;48.738;9.228;2023-04-24T15:44:38;1.33;;;1.25;;
335;SDS011;156;48.738;9.228;2023-04-24T15:47:07;1.77;;;0.85;;
335;SDS011;156;48.738;9.228;2023-04-24T15:49:39;1.08;;;0.70;;
335;SDS011;156;48.738;9.228;2023-04-24T15:52:08;1.50;;;1.25;;
335;SDS011;156;48.738;9.228;2023-04-24T15:54:35;0.50;;;0.30;;
335;SDS011;156;48.738;9.228;2023-04-24T15:57:03;0.60;;;0.40;;